Time;durP1;ratioP1;P1;durP2;ratioP2;P2;SDS_P1;SDS_P2;PMS_P1;PMS_P2;Temp;Humidity;BMP_temperature;BMP_pressure;BME280_temperature;BME280_humidity;BME280_pressure;Samples;Min_cycle;Max_cycle;Signal;HPM_P1;HPM_P2
2023/08/21 00:01:34;;;;;;;;;;;17.10;99.90;;;;;;5021268;28;20295;-43
2023/08/21 00:04:01;;;;;;;;;;;17.10;99.90;;;;;;5027762;28;19966;-43
2023/08/21 00:06:28;;;;;;;;;;;17.00;99.90;;;;;;5008832;28;19959;-43
2023/08/21 00:08:54;;;;;;;;;;;17.10;99.90;;;;;;5016045;28;20364;-43
2023/08/21 00:11:21;;;;;;;;;;;17.00;99.90;;;;;;5026358;28;19944;-43
2023/08/21 00:13:49;;;;;;;;;;;17.00;99.90;;;;;;5004929;28;19982;-43
2023/08/21 00:16:17;;;;;;;;;;;17.00;99.90;;;;;;5020198;28;19929;-44
2023/08/21 00:18:44;;;;;;;;;;;17.00;99.90;;;;;;5031167;28;20299;-44
2023/08/21 00:21:10;;;;;;;;;;;17.00;99.90;;;;;;5017482;28;19941;-44
2023/08/21 00:23:37;;;;;;;;;;;17.00;99.90;;;;;;5027935;28;19977;-44
2023/08/21 00:26:03;;;;;;;;;;;16.90;99.90;;;;;;5022036;28;20353;-43
2023/08/21 00:28:32;;;;;;;;;;;16.90;99.90;;;;;;5000912;28;20382;-43
2023/08/21 00:31:01;;;;;;;;;;;16.90;99.90;;;;;;5014208;28;20313;-43
2023/08/21 00:33:29;;;;;;;;;;;16.90;99.90;;;;;;5016691;28;19942;-43
2023/08/21 00:35:55;;;;;;;;;;;16.90;99.90;;;;;;5028728;28;19945;-44
2023/08/21 00:38:22;;;;;;;;;;;16.80;99.90;;;;;;5013716;28;19939;-43
2023/08/21 00:40:49;;;;;;;;;;;16.80;99.90;;;;;;5013241;28;19925;-44
2023/08/21 00:43:16;;;;;;;;;;;16.80;99.90;;;;;;4996974;28;19992;-43
2023/08/21 00:45:43;;;;;;;;;;;16.80;99.90;;;;;;5014889;28;20531;-44
2023/08/21 00:48:10;;;;;;;;;;;16.80;99.90;;;;;;5031270;28;19946;-44
2023/08/21 00:50:38;;;;;;;;;;;16.70;99.90;;;;;;5019772;28;19940;-43
2023/08/21 00:53:05;;;;;;;;;;;16.50;99.90;;;;;;5019919;28;19929;-43
2023/08/21 00:55:32;;;;;;;;;;;16.50;99.90;;;;;;5015622;28;19940;-44
2023/08/21 00:57:58;;;;;;;;;;;16.50;99.90;;;;;;5014342;28;20522;-44
2023/08/21 01:00:25;;;;;;;;;;;16.50;99.90;;;;;;5031166;28;19987;-42
2023/08/21 01:02:52;;;;;;;;;;;16.50;99.90;;;;;;5017895;28;20416;-44
2023/08/21 01:05:19;;;;;;;;;;;16.50;99.90;;;;;;5002473;28;19940;-44
2023/08/21 01:07:49;;;;;;;;;;;16.50;99.90;;;;;;5025649;28;19959;-43
2023/08/21 01:10:16;;;;;;;;;;;16.40;99.90;;;;;;5027950;28;19945;-44
2023/08/21 01:12:45;;;;;;;;;;;16.40;99.90;;;;;;5001401;28;19948;-44
2023/08/21 01:15:12;;;;;;;;;;;16.40;99.90;;;;;;5030688;28;19929;-44
2023/08/21 01:17:39;;;;;;;;;;;16.40;99.90;;;;;;5025255;28;20432;-43
2023/08/21 01:20:08;;;;;;;;;;;16.40;99.90;;;;;;5021335;28;19937;-43
2023/08/21 01:22:36;;;;;;;;;;;16.30;99.90;;;;;;5010817;28;19961;-44
2023/08/21 01:25:05;;;;;;;;;;;16.30;99.90;;;;;;4999922;28;19939;-43
2023/08/21 01:27:31;;;;;;;;;;;16.30;99.90;;;;;;5022945;28;19926;-43
2023/08/21 01:29:58;;;;;;;;;;;16.30;99.90;;;;;;5020050;28;19945;-44
2023/08/21 01:32:27;;;;;;;;;;;16.30;99.90;;;;;;5028143;28;20366;-43
2023/08/21 01:34:53;;;;;;;;;;;16.20;99.90;;;;;;5006475;28;20304;-44
2023/08/21 01:37:20;;;;;;;;;;;16.20;99.90;;;;;;5021648;28;19932;-44
2023/08/21 01:39:47;;;;;;;;;;;16.20;99.90;;;;;;5011852;28;19926;-44
2023/08/21 01:42:15;;;;;;;;;;;16.20;99.90;;;;;;5016282;28;19936;-42
2023/08/21 01:44:41;;;;;;;;;;;16.10;99.90;;;;;;5019226;28;19936;-43
2023/08/21 01:47:08;;;;;;;;;;;16.10;99.90;;;;;;5034046;28;20030;-44
2023/08/21 01:49:35;;;;;;;;;;;16.10;99.90;;;;;;5025570;28;20355;-44
2023/08/21 01:52:04;;;;;;;;;;;16.10;99.90;;;;;;5023584;28;20353;-42
2023/08/21 01:54:31;;;;;;;;;;;16.00;99.90;;;;;;5018677;28;19965;-43
2023/08/21 01:56:58;;;;;;;;;;;16.00;99.90;;;;;;5033890;28;19963;-43
2023/08/21 01:59:26;;;;;;;;;;;16.00;99.90;;;;;;5006560;28;19936;-44
2023/08/21 02:01:53;;;;;;;;;;;16.00;99.90;;;;;;5010298;28;20444;-43
2023/08/21 02:04:20;;;;;;;;;;;16.00;99.90;;;;;;5013638;28;19932;-44
2023/08/21 02:06:47;;;;;;;;;;;16.00;99.90;;;;;;5016113;28;19955;-44
2023/08/21 02:09:13;;;;;;;;;;;15.90;99.90;;;;;;5014331;28;19966;-44
2023/08/21 02:11:40;;;;;;;;;;;15.90;99.90;;;;;;5021014;28;19986;-44
2023/08/21 02:14:07;;;;;;;;;;;15.80;99.90;;;;;;5034156;28;19966;-44
2023/08/21 02:16:35;;;;;;;;;;;15.90;99.90;;;;;;5016878;28;19955;-44
2023/08/21 02:19:02;;;;;;;;;;;15.80;99.90;;;;;;5026505;28;19966;-44
2023/08/21 02:21:28;;;;;;;;;;;15.80;99.90;;;;;;5000962;28;19948;-43
2023/08/21 02:23:55;;;;;;;;;;;15.80;99.90;;;;;;4997766;28;20301;-44
2023/08/21 02:26:22;;;;;;;;;;;15.70;99.90;;;;;;5031961;28;20014;-44
2023/08/21 02:28:48;;;;;;;;;;;15.70;99.90;;;;;;5016632;28;19929;-43
2023/08/21 02:31:15;;;;;;;;;;;15.60;99.90;;;;;;5026054;28;19936;-43
2023/08/21 02:33:43;;;;;;;;;;;15.60;99.90;;;;;;5021319;28;19925;-43
2023/08/21 02:36:10;;;;;;;;;;;15.60;99.90;;;;;;5034034;28;19932;-44
2023/08/21 02:38:36;;;;;;;;;;;15.60;99.90;;;;;;5025509;28;20007;-42
2023/08/21 02:41:03;;;;;;;;;;;15.60;99.90;;;;;;5003469;28;19943;-43
2023/08/21 02:43:30;;;;;;;;;;;15.50;99.90;;;;;;5005919;28;19975;-43
2023/08/21 02:45:56;;;;;;;;;;;15.50;99.90;;;;;;5004167;28;19940;-44
2023/08/21 02:48:23;;;;;;;;;;;15.50;99.90;;;;;;5029498;28;19943;-44
2023/08/21 02:50:51;;;;;;;;;;;15.40;99.90;;;;;;5014686;28;19955;-43
2023/08/21 02:53:18;;;;;;;;;;;15.40;99.90;;;;;;5007439;28;20252;-43
2023/08/21 02:55:44;;;;;;;;;;;15.40;99.90;;;;;;5028886;28;19926;-44
2023/08/21 02:58:11;;;;;;;;;;;15.30;99.90;;;;;;5030782;28;19965;-45
2023/08/21 03:00:38;;;;;;;;;;;15.30;99.90;;;;;;5029893;28;20292;-43
2023/08/21 03:03:05;;;;;;;;;;;15.30;99.90;;;;;;5019361;28;19952;-43
2023/08/21 03:05:31;;;;;;;;;;;15.30;99.90;;;;;;5031713;28;19982;-43
2023/08/21 03:07:59;;;;;;;;;;;15.30;99.90;;;;;;5021287;28;19960;-43
2023/08/21 03:10:27;;;;;;;;;;;15.30;99.90;;;;;;5025838;28;19945;-43
2023/08/21 03:12:54;;;;;;;;;;;15.20;99.90;;;;;;5026468;28;19929;-43
2023/08/21 03:15:20;;;;;;;;;;;15.20;99.90;;;;;;5015492;28;19937;-44
2023/08/21 03:17:47;;;;;;;;;;;15.20;99.90;;;;;;5013094;28;19925;-43
2023/08/21 03:20:14;;;;;;;;;;;15.20;99.90;;;;;;5010885;28;19929;-43
2023/08/21 03:22:41;;;;;;;;;;;15.20;99.90;;;;;;5027835;28;19964;-43
2023/08/21 03:25:10;;;;;;;;;;;15.10;99.90;;;;;;5008541;28;19979;-43
2023/08/21 03:27:39;;;;;;;;;;;15.10;99.90;;;;;;5005385;28;19925;-44
2023/08/21 03:30:06;;;;;;;;;;;15.10;99.90;;;;;;5027018;28;19933;-43
2023/08/21 03:32:33;;;;;;;;;;;15.10;99.90;;;;;;4982735;28;19932;-44
2023/08/21 03:35:00;;;;;;;;;;;15.10;99.90;;;;;;5031764;28;19925;-44
2023/08/21 03:37:26;;;;;;;;;;;15.00;99.90;;;;;;5013825;28;19939;-43
2023/08/21 03:39:53;;;;;;;;;;;15.00;99.90;;;;;;5032159;28;20443;-44
2023/08/21 03:42:21;;;;;;;;;;;15.00;99.90;;;;;;5014530;28;19933;-41
2023/08/21 03:44:49;;;;;;;;;;;15.00;99.90;;;;;;5025088;28;19950;-44
2023/08/21 03:47:16;;;;;;;;;;;15.00;99.90;;;;;;5011547;28;19955;-43
2023/08/21 03:49:43;;;;;;;;;;;15.00;99.90;;;;;;5022554;28;20285;-44
2023/08/21 03:52:10;;;;;;;;;;;14.90;99.90;;;;;;5027187;28;19960;-44
2023/08/21 03:54:36;;;;;;;;;;;14.90;99.90;;;;;;4999598;28;20271;-44
2023/08/21 03:57:03;;;;;;;;;;;14.90;99.90;;;;;;4995870;28;19936;-43
2023/08/21 03:59:31;;;;;;;;;;;14.90;99.90;;;;;;5003042;28;20398;-43
2023/08/21 04:01:58;;;;;;;;;;;14.90;99.90;;;;;;5002825;28;20501;-43
2023/08/21 04:04:24;;;;;;;;;;;14.90;99.90;;;;;;5010806;28;19925;-44
2023/08/21 04:06:51;;;;;;;;;;;14.80;99.90;;;;;;5028751;28;20377;-43
2023/08/21 04:09:18;;;;;;;;;;;14.80;99.90;;;;;;5029023;28;19943;-43
2023/08/21 04:11:44;;;;;;;;;;;14.80;99.90;;;;;;5007659;28;19968;-43
2023/08/21 04:14:11;;;;;;;;;;;14.80;99.90;;;;;;5021328;28;19979;-44
2023/08/21 04:16:39;;;;;;;;;;;14.80;99.90;;;;;;4996869;28;20459;-43
2023/08/21 04:19:06;;;;;;;;;;;14.70;99.90;;;;;;5028098;28;19955;-44
2023/08/21 04:21:32;;;;;;;;;;;14.70;99.90;;;;;;5012670;28;19955;-43
2023/08/21 04:24:00;;;;;;;;;;;14.70;99.90;;;;;;5031559;28;19959;-44
2023/08/21 04:26:26;;;;;;;;;;;14.70;99.90;;;;;;5028708;28;20459;-44
2023/08/21 04:28:53;;;;;;;;;;;14.70;99.90;;;;;;5013308;28;19977;-44
2023/08/21 04:31:19;;;;;;;;;;;14.70;99.90;;;;;;5019781;28;19936;-43
2023/08/21 04:33:47;;;;;;;;;;;14.60;99.90;;;;;;4997594;28;20374;-44
2023/08/21 04:36:17;;;;;;;;;;;14.60;99.90;;;;;;5024523;28;20053;-44
2023/08/21 04:38:44;;;;;;;;;;;14.60;99.90;;;;;;5017313;28;19963;-44
2023/08/21 04:41:11;;;;;;;;;;;14.60;99.90;;;;;;5027626;28;19949;-44
2023/08/21 04:43:38;;;;;;;;;;;14.60;99.90;;;;;;5030800;28;19943;-44
2023/08/21 04:46:04;;;;;;;;;;;14.50;99.90;;;;;;5019838;28;20319;-44
2023/08/21 04:48:31;;;;;;;;;;;14.40;99.90;;;;;;5026632;28;19952;-44
2023/08/21 04:50:59;;;;;;;;;;;14.40;99.90;;;;;;5009615;28;19952;-44
2023/08/21 04:53:26;;;;;;;;;;;14.40;99.90;;;;;;5032427;28;19929;-44
2023/08/21 04:55:52;;;;;;;;;;;14.40;99.90;;;;;;4998578;28;19986;-44
2023/08/21 04:58:19;;;;;;;;;;;14.40;99.90;;;;;;5023256;28;19925;-44
2023/08/21 05:00:46;;;;;;;;;;;14.40;99.90;;;;;;5017337;28;20439;-44
2023/08/21 05:03:13;;;;;;;;;;;14.40;99.90;;;;;;5013308;28;19940;-44
2023/08/21 05:05:40;;;;;;;;;;;14.30;99.90;;;;;;5029067;28;20016;-45
2023/08/21 05:08:08;;;;;;;;;;;14.40;99.90;;;;;;5009425;28;19966;-44
2023/08/21 05:10:34;;;;;;;;;;;14.40;99.90;;;;;;5027108;28;20001;-43
2023/08/21 05:13:01;;;;;;;;;;;14.50;99.90;;;;;;5002567;28;20396;-43
2023/08/21 05:15:28;;;;;;;;;;;14.50;99.90;;;;;;5004982;28;19941;-44
2023/08/21 05:17:54;;;;;;;;;;;14.50;99.90;;;;;;5015800;28;20391;-43
2023/08/21 05:20:21;;;;;;;;;;;14.50;99.90;;;;;;5018389;28;20005;-43
2023/08/21 05:22:48;;;;;;;;;;;14.50;99.90;;;;;;5026586;28;20301;-43
2023/08/21 05:25:16;;;;;;;;;;;14.50;99.90;;;;;;5020559;28;19947;-43
2023/08/21 05:27:42;;;;;;;;;;;14.50;99.90;;;;;;5019571;28;19979;-43
2023/08/21 05:30:10;;;;;;;;;;;14.60;99.90;;;;;;5013848;28;19945;-43
2023/08/21 05:32:37;;;;;;;;;;;14.60;99.90;;;;;;5026003;28;19990;-44
2023/08/21 05:35:04;;;;;;;;;;;14.60;99.90;;;;;;5027908;28;20002;-43
2023/08/21 05:37:31;;;;;;;;;;;14.60;99.90;;;;;;5029125;28;19950;-43
2023/08/21 05:39:57;;;;;;;;;;;14.70;99.90;;;;;;5022709;28;20391;-44
2023/08/21 05:42:25;;;;;;;;;;;14.70;99.90;;;;;;5028806;28;19995;-44
2023/08/21 05:44:52;;;;;;;;;;;14.70;99.90;;;;;;5011831;28;19948;-44
2023/08/21 05:47:19;;;;;;;;;;;14.80;99.90;;;;;;5014627;28;19964;-44
2023/08/21 05:49:47;;;;;;;;;;;14.80;99.90;;;;;;5022244;28;19925;-43
2023/08/21 05:52:14;;;;;;;;;;;14.80;99.90;;;;;;5012047;28;20419;-44
2023/08/21 05:54:40;;;;;;;;;;;14.90;99.90;;;;;;5026820;28;19925;-44
2023/08/21 05:57:07;;;;;;;;;;;15.00;99.90;;;;;;5022747;28;19947;-44
2023/08/21 05:59:35;;;;;;;;;;;15.10;99.90;;;;;;5000755;28;19971;-43
2023/08/21 06:02:02;;;;;;;;;;;15.20;99.90;;;;;;5024471;28;20427;-44
2023/08/21 06:04:28;;;;;;;;;;;15.30;99.90;;;;;;5033374;28;19948;-43
2023/08/21 06:06:55;;;;;;;;;;;15.40;99.90;;;;;;5010752;28;20079;-43
2023/08/21 06:09:22;;;;;;;;;;;15.40;99.90;;;;;;5026807;28;19925;-43
2023/08/21 06:11:48;;;;;;;;;;;15.60;99.90;;;;;;5017140;28;20597;-43
2023/08/21 06:14:15;;;;;;;;;;;15.70;99.90;;;;;;5034527;28;19928;-43
2023/08/21 06:16:44;;;;;;;;;;;15.80;99.90;;;;;;5004275;28;20457;-43
2023/08/21 06:19:11;;;;;;;;;;;16.00;99.90;;;;;;5026992;28;19989;-44
2023/08/21 06:21:38;;;;;;;;;;;16.10;99.90;;;;;;5029308;28;19936;-44
2023/08/21 06:24:05;;;;;;;;;;;16.20;99.90;;;;;;5014784;28;19941;-43
2023/08/21 06:26:31;;;;;;;;;;;16.40;99.90;;;;;;5034103;28;19947;-43
2023/08/21 06:28:58;;;;;;;;;;;16.50;99.90;;;;;;5033323;28;20092;-44
2023/08/21 06:31:25;;;;;;;;;;;16.70;99.90;;;;;;5016013;28;19941;-43
2023/08/21 06:33:53;;;;;;;;;;;16.80;99.90;;;;;;5014343;28;19948;-44
2023/08/21 06:36:19;;;;;;;;;;;17.00;99.90;;;;;;5010389;28;19986;-44
2023/08/21 06:38:46;;;;;;;;;;;17.20;99.90;;;;;;5014823;28;19940;-43
2023/08/21 06:41:13;;;;;;;;;;;17.30;99.90;;;;;;5002365;28;20376;-44
2023/08/21 06:43:39;;;;;;;;;;;17.50;99.90;;;;;;5005031;28;19963;-44
2023/08/21 06:46:06;;;;;;;;;;;17.60;99.90;;;;;;5033195;28;19941;-44
2023/08/21 06:48:33;;;;;;;;;;;17.80;99.90;;;;;;5019635;28;19998;-43
2023/08/21 06:51:04;;;;;;;;;;;17.90;99.90;;;;;;5026285;28;20459;-43
2023/08/21 06:53:31;;;;;;;;;;;18.10;99.90;;;;;;5012300;28;20022;-43
2023/08/21 06:55:58;;;;;;;;;;;18.30;99.90;;;;;;5016047;28;19944;-44
2023/08/21 06:58:24;;;;;;;;;;;18.40;99.90;;;;;;5034534;28;19950;-44
2023/08/21 07:00:51;;;;;;;;;;;18.50;99.90;;;;;;5015552;28;19948;-44
2023/08/21 07:03:18;;;;;;;;;;;18.70;99.90;;;;;;5032818;28;19925;-44
2023/08/21 07:05:47;;;;;;;;;;;18.80;99.90;;;;;;5025568;28;19972;-44
2023/08/21 07:08:15;;;;;;;;;;;19.00;99.90;;;;;;4997452;28;19955;-44
2023/08/21 07:10:41;;;;;;;;;;;19.20;99.90;;;;;;5020694;28;20042;-44
2023/08/21 07:13:08;;;;;;;;;;;19.30;99.90;;;;;;5032795;28;20043;-43
2023/08/21 07:15:35;;;;;;;;;;;19.40;99.90;;;;;;5031351;28;19939;-44
2023/08/21 07:18:02;;;;;;;;;;;19.50;99.90;;;;;;5007425;28;19947;-43
2023/08/21 07:20:29;;;;;;;;;;;19.70;99.90;;;;;;5017991;28;19955;-43
2023/08/21 07:22:56;;;;;;;;;;;19.80;99.90;;;;;;5033527;28;19943;-43
2023/08/21 07:25:24;;;;;;;;;;;19.90;99.90;;;;;;5027488;28;19960;-44
2023/08/21 07:27:52;;;;;;;;;;;20.00;99.90;;;;;;5029665;28;19956;-43
2023/08/21 07:30:19;;;;;;;;;;;20.20;99.90;;;;;;5023951;28;19941;-44
2023/08/21 07:32:46;;;;;;;;;;;20.30;99.90;;;;;;5032927;28;19969;-44
2023/08/21 07:35:13;;;;;;;;;;;20.50;99.90;;;;;;5004886;28;19926;-43
2023/08/21 07:37:44;;;;;;;;;;;20.60;99.90;;;;;;5016100;28;19973;-44
2023/08/21 07:40:11;;;;;;;;;;;20.70;99.90;;;;;;5032645;28;20336;-43
2023/08/21 07:42:39;;;;;;;;;;;20.80;99.90;;;;;;5009508;28;19994;-43
2023/08/21 07:45:06;;;;;;;;;;;20.90;99.90;;;;;;5027607;28;19938;-44
2023/08/21 07:47:33;;;;;;;;;;;21.10;99.90;;;;;;5018812;28;19936;-44
2023/08/21 07:50:00;;;;;;;;;;;21.20;99.90;;;;;;5020824;28;19939;-43
2023/08/21 07:52:26;;;;;;;;;;;21.40;99.90;;;;;;5015789;28;19960;-43
2023/08/21 07:54:53;;;;;;;;;;;21.50;99.90;;;;;;5029825;28;20319;-43
2023/08/21 07:57:23;;;;;;;;;;;21.70;99.90;;;;;;5020940;28;19932;-43
2023/08/21 07:59:51;;;;;;;;;;;21.80;99.90;;;;;;5029526;28;19949;-44
2023/08/21 08:02:18;;;;;;;;;;;21.90;99.90;;;;;;5022566;28;19925;-43
2023/08/21 08:04:44;;;;;;;;;;;22.00;99.90;;;;;;5019100;28;19941;-43
2023/08/21 08:07:11;;;;;;;;;;;22.20;99.90;;;;;;5027060;28;19940;-44
2023/08/21 08:09:38;;;;;;;;;;;22.30;99.90;;;;;;5031220;28;19951;-44
2023/08/21 08:12:05;;;;;;;;;;;22.40;99.90;;;;;;5010154;28;20419;-43
2023/08/21 08:14:31;;;;;;;;;;;22.40;99.90;;;;;;5012982;28;19943;-44
2023/08/21 08:17:00;;;;;;;;;;;22.50;99.90;;;;;;5011949;28;20316;-45
2023/08/21 08:19:26;;;;;;;;;;;22.60;99.90;;;;;;5012037;28;19951;-44
2023/08/21 08:21:53;;;;;;;;;;;22.80;99.90;;;;;;5024050;28;20438;-43
2023/08/21 08:24:22;;;;;;;;;;;22.90;99.90;;;;;;5000267;28;19982;-44
2023/08/21 08:26:49;;;;;;;;;;;23.10;99.90;;;;;;5031741;28;19941;-43
2023/08/21 08:29:16;;;;;;;;;;;23.20;99.90;;;;;;5014669;28;20022;-44
2023/08/21 08:31:43;;;;;;;;;;;23.40;99.90;;;;;;5011798;28;19964;-43
2023/08/21 08:34:11;;;;;;;;;;;23.50;99.90;;;;;;5021076;28;19929;-44
2023/08/21 08:36:37;;;;;;;;;;;23.60;99.90;;;;;;5019124;28;19971;-43
2023/08/21 08:39:05;;;;;;;;;;;23.70;99.90;;;;;;5013099;28;19993;-43
2023/08/21 08:41:34;;;;;;;;;;;23.80;99.90;;;;;;5010546;28;20022;-44
2023/08/21 08:44:00;;;;;;;;;;;24.00;99.90;;;;;;5000598;28;20001;-44
2023/08/21 08:46:27;;;;;;;;;;;24.20;99.90;;;;;;5008769;28;19966;-44
2023/08/21 08:48:54;;;;;;;;;;;24.30;99.90;;;;;;5014720;28;20424;-43
2023/08/21 08:51:22;;;;;;;;;;;24.40;99.90;;;;;;5012539;28;19971;-44
2023/08/21 08:53:49;;;;;;;;;;;24.50;99.90;;;;;;5026273;28;19943;-43
2023/08/21 08:56:16;;;;;;;;;;;24.60;99.90;;;;;;5023775;28;20004;-44
2023/08/21 08:58:43;;;;;;;;;;;24.80;99.90;;;;;;5029887;28;20005;-43
2023/08/21 09:01:10;;;;;;;;;;;24.80;99.90;;;;;;5031282;28;20013;-44
2023/08/21 09:03:37;;;;;;;;;;;24.90;99.90;;;;;;5026175;28;19929;-43
2023/08/21 09:06:04;;;;;;;;;;;25.00;99.90;;;;;;5023202;28;20328;-44
2023/08/21 09:08:32;;;;;;;;;;;25.10;99.90;;;;;;5013495;28;20440;-44
2023/08/21 09:10:59;;;;;;;;;;;25.20;99.90;;;;;;4998163;28;20352;-44
2023/08/21 09:13:26;;;;;;;;;;;25.30;99.90;;;;;;5022759;28;19963;-44
2023/08/21 09:15:54;;;;;;;;;;;25.50;99.90;;;;;;5013324;28;20029;-43
2023/08/21 09:18:20;;;;;;;;;;;25.60;99.90;;;;;;4995847;28;20002;-44
2023/08/21 09:20:48;;;;;;;;;;;25.70;99.90;;;;;;5019709;28;19969;-44
2023/08/21 09:23:16;;;;;;;;;;;25.80;99.90;;;;;;5027555;28;20010;-43
2023/08/21 09:25:44;;;;;;;;;;;25.90;99.90;;;;;;4995222;28;19948;-43
2023/08/21 09:28:11;;;;;;;;;;;26.00;99.90;;;;;;5014189;28;19982;-44
2023/08/21 09:30:47;;;;;;;;;;;26.00;99.70;;;;;;5015891;28;20353;-43
2023/08/21 09:33:13;;;;;;;;;;;26.10;99.90;;;;;;5002313;28;19959;-43
2023/08/21 09:35:41;;;;;;;;;;;26.20;99.90;;;;;;5017166;28;19925;-44
2023/08/21 09:38:08;;;;;;;;;;;26.30;99.20;;;;;;5016899;28;19929;-44
2023/08/21 09:40:35;;;;;;;;;;;26.30;98.50;;;;;;5017512;28;19944;-44
2023/08/21 09:43:03;;;;;;;;;;;26.30;99.20;;;;;;5017019;28;20336;-43
2023/08/21 09:45:30;;;;;;;;;;;26.40;99.10;;;;;;4999480;28;19933;-44
2023/08/21 09:47:57;;;;;;;;;;;26.50;98.70;;;;;;5017547;28;20396;-44
2023/08/21 09:50:23;;;;;;;;;;;26.60;99.00;;;;;;5029384;28;19933;-43
2023/08/21 09:52:50;;;;;;;;;;;26.70;97.90;;;;;;5016999;28;20360;-43
2023/08/21 09:55:17;;;;;;;;;;;26.80;97.80;;;;;;4999319;28;20403;-43
2023/08/21 09:57:43;;;;;;;;;;;26.80;97.00;;;;;;5000903;28;19943;-43
2023/08/21 10:00:15;;;;;;;;;;;26.90;92.90;;;;;;5003009;28;19929;-43
2023/08/21 10:02:42;;;;;;;;;;;26.80;94.70;;;;;;5017235;28;19997;-43
2023/08/21 10:05:10;;;;;;;;;;;26.80;93.20;;;;;;4999390;28;20373;-44
2023/08/21 10:07:37;;;;;;;;;;;26.80;95.50;;;;;;5029183;28;20309;-44
2023/08/21 10:10:03;;;;;;;;;;;26.90;95.60;;;;;;5015749;28;20368;-43
2023/08/21 10:12:30;;;;;;;;;;;27.00;92.80;;;;;;5012657;28;19932;-43
2023/08/21 10:14:57;;;;;;;;;;;27.00;95.10;;;;;;4999065;28;19925;-43
2023/08/21 10:17:25;;;;;;;;;;;27.10;93.80;;;;;;5015684;28;19966;-43
2023/08/21 10:19:52;;;;;;;;;;;27.30;94.20;;;;;;5007270;28;19933;-43
2023/08/21 10:22:34;;;;;;;;;;;27.30;93.80;;;;;;5025737;28;19975;-43
2023/08/21 10:25:00;;;;;;;;;;;27.30;93.10;;;;;;5025326;28;20304;-43
2023/08/21 10:27:30;;;;;;;;;;;27.40;94.10;;;;;;5000787;28;19938;-44
2023/08/21 10:29:59;;;;;;;;;;;27.40;95.00;;;;;;5026594;28;19933;-43
2023/08/21 10:32:27;;;;;;;;;;;27.50;91.50;;;;;;5017456;28;20021;-43
2023/08/21 10:34:54;;;;;;;;;;;27.50;93.00;;;;;;5029426;28;19933;-43
2023/08/21 10:37:21;;;;;;;;;;;27.60;93.40;;;;;;5031015;28;19959;-44
2023/08/21 10:39:55;;;;;;;;;;;27.80;94.90;;;;;;5028597;28;19959;-44
2023/08/21 10:42:22;;;;;;;;;;;27.90;92.70;;;;;;5015707;28;19932;-43
2023/08/21 10:44:51;;;;;;;;;;;28.00;93.40;;;;;;5033195;28;19929;-44
2023/08/21 10:47:18;;;;;;;;;;;28.00;93.80;;;;;;5025599;28;20456;-44
2023/08/21 10:49:47;;;;;;;;;;;28.10;91.80;;;;;;5030307;28;19952;-43
2023/08/21 10:52:13;;;;;;;;;;;28.10;90.80;;;;;;5003642;28;20369;-43
2023/08/21 10:54:44;;;;;;;;;;;28.20;92.10;;;;;;5015856;28;19975;-43
2023/08/21 10:57:10;;;;;;;;;;;28.30;91.20;;;;;;5025583;28;20335;-44
2023/08/21 10:59:37;;;;;;;;;;;28.20;92.10;;;;;;5032928;28;19929;-43
2023/08/21 11:02:04;;;;;;;;;;;28.40;92.50;;;;;;5019465;28;19964;-44
2023/08/21 11:04:31;;;;;;;;;;;28.40;92.20;;;;;;4995140;28;19932;-44
2023/08/21 11:06:59;;;;;;;;;;;28.40;93.40;;;;;;4980183;28;19929;-44
2023/08/21 11:09:25;;;;;;;;;;;28.30;92.70;;;;;;4993709;28;19972;-44
2023/08/21 11:11:52;;;;;;;;;;;28.30;93.20;;;;;;5011465;28;20007;-43
2023/08/21 11:14:19;;;;;;;;;;;28.40;92.90;;;;;;5003532;28;20438;-44
2023/08/21 11:16:45;;;;;;;;;;;28.50;92.50;;;;;;4999408;28;19933;-44
2023/08/21 11:19:12;;;;;;;;;;;28.50;90.50;;;;;;4995404;28;19929;-44
2023/08/21 11:21:39;;;;;;;;;;;28.60;89.00;;;;;;5008193;28;19956;-44
2023/08/21 11:24:07;;;;;;;;;;;28.60;90.60;;;;;;5001736;28;19925;-43
2023/08/21 11:26:33;;;;;;;;;;;28.60;91.10;;;;;;5009443;28;19933;-45
2023/08/21 11:29:02;;;;;;;;;;;28.70;90.90;;;;;;4995014;28;19941;-44
2023/08/21 11:31:29;;;;;;;;;;;28.70;88.50;;;;;;5002907;28;19941;-44
2023/08/21 11:33:55;;;;;;;;;;;28.80;88.80;;;;;;4992945;28;19964;-44
2023/08/21 11:36:22;;;;;;;;;;;28.80;89.00;;;;;;4982885;28;19979;-44
2023/08/21 11:39:01;;;;;;;;;;;28.70;89.80;;;;;;5005707;28;20046;-44
2023/08/21 11:41:29;;;;;;;;;;;28.60;90.50;;;;;;4995745;28;20324;-44
2023/08/21 11:44:03;;;;;;;;;;;28.70;90.80;;;;;;5011355;28;19972;-44
2023/08/21 11:46:30;;;;;;;;;;;28.80;90.90;;;;;;4984188;28;20020;-43
2023/08/21 11:48:57;;;;;;;;;;;28.90;91.40;;;;;;5012476;28;19973;-44
2023/08/21 11:51:23;;;;;;;;;;;29.00;90.90;;;;;;5013444;28;20344;-44
2023/08/21 11:53:50;;;;;;;;;;;29.20;91.60;;;;;;5013280;28;19925;-44
2023/08/21 11:56:17;;;;;;;;;;;29.30;91.10;;;;;;4982589;28;19926;-43
2023/08/21 11:58:46;;;;;;;;;;;29.30;87.10;;;;;;5008347;28;19928;-44
2023/08/21 12:01:16;;;;;;;;;;;29.30;90.00;;;;;;5003675;28;19988;-44
2023/08/21 12:03:44;;;;;;;;;;;29.20;90.30;;;;;;4995658;28;19964;-44
2023/08/21 12:06:11;;;;;;;;;;;29.00;90.20;;;;;;4999852;28;19980;-43
2023/08/21 12:08:37;;;;;;;;;;;28.90;90.00;;;;;;5005304;28;19949;-44
2023/08/21 12:11:04;;;;;;;;;;;28.90;90.10;;;;;;5030200;28;19925;-43
2023/08/21 12:13:31;;;;;;;;;;;29.00;90.80;;;;;;5013973;28;19932;-44
2023/08/21 12:15:59;;;;;;;;;;;29.10;86.30;;;;;;5012421;28;19972;-44
2023/08/21 12:18:25;;;;;;;;;;;29.30;85.00;;;;;;5026660;28;19983;-44
2023/08/21 12:20:52;;;;;;;;;;;29.40;87.10;;;;;;5001246;28;19976;-43
2023/08/21 12:23:21;;;;;;;;;;;29.40;88.00;;;;;;5027186;28;19948;-44
2023/08/21 12:25:48;;;;;;;;;;;29.40;86.10;;;;;;5015261;28;19925;-44
2023/08/21 12:28:15;;;;;;;;;;;29.30;88.90;;;;;;5020993;28;19972;-44
2023/08/21 12:30:41;;;;;;;;;;;29.20;88.80;;;;;;5031584;28;19929;-43
2023/08/21 12:33:09;;;;;;;;;;;29.10;89.40;;;;;;5007281;28;19925;-44
2023/08/21 12:35:36;;;;;;;;;;;29.00;90.60;;;;;;5027397;28;19925;-45
2023/08/21 12:38:08;;;;;;;;;;;29.20;88.40;;;;;;5021278;28;19925;-42
2023/08/21 12:40:34;;;;;;;;;;;29.40;90.20;;;;;;5002951;28;19932;-44
2023/08/21 12:43:01;;;;;;;;;;;29.50;89.50;;;;;;5026920;28;19991;-44
2023/08/21 12:45:28;;;;;;;;;;;29.60;88.10;;;;;;5001132;28;19960;-44
2023/08/21 12:47:54;;;;;;;;;;;29.70;86.60;;;;;;5010034;28;19978;-44
2023/08/21 12:50:22;;;;;;;;;;;29.90;87.20;;;;;;5014177;28;20385;-44
2023/08/21 12:52:49;;;;;;;;;;;30.00;86.60;;;;;;5014658;28;19925;-44
2023/08/21 12:55:16;;;;;;;;;;;30.10;83.40;;;;;;5018463;28;19925;-43
2023/08/21 12:57:42;;;;;;;;;;;30.20;83.80;;;;;;4995602;28;20344;-44
2023/08/21 13:00:11;;;;;;;;;;;30.30;84.00;;;;;;5025012;28;19933;-43
2023/08/21 13:02:38;;;;;;;;;;;30.40;83.80;;;;;;4995236;28;19926;-44
2023/08/21 13:05:06;;;;;;;;;;;30.50;83.60;;;;;;5024124;28;19959;-43
2023/08/21 13:07:34;;;;;;;;;;;30.50;78.30;;;;;;5010492;28;19993;-43
2023/08/21 13:10:01;;;;;;;;;;;30.60;81.10;;;;;;5017289;28;19959;-43
2023/08/21 13:12:28;;;;;;;;;;;30.60;81.50;;;;;;5017002;28;20436;-43
2023/08/21 13:14:55;;;;;;;;;;;30.60;79.90;;;;;;5023499;28;20075;-45
2023/08/21 13:17:22;;;;;;;;;;;30.60;80.90;;;;;;5029704;28;19983;-43
2023/08/21 13:19:48;;;;;;;;;;;30.60;81.20;;;;;;5007715;28;19925;-44
2023/08/21 13:22:16;;;;;;;;;;;30.70;81.60;;;;;;5025476;28;19991;-43
2023/08/21 13:24:44;;;;;;;;;;;30.80;82.50;;;;;;5027657;28;19975;-44
2023/08/21 13:27:11;;;;;;;;;;;30.90;81.90;;;;;;5022843;28;19930;-45
2023/08/21 13:29:38;;;;;;;;;;;30.90;79.60;;;;;;5032806;28;19929;-43
2023/08/21 13:32:04;;;;;;;;;;;30.90;80.80;;;;;;5027631;28;19925;-44
2023/08/21 13:34:31;;;;;;;;;;;31.00;82.00;;;;;;5017000;28;19936;-44
2023/08/21 13:36:58;;;;;;;;;;;31.10;80.30;;;;;;5001215;28;19929;-44
2023/08/21 13:39:26;;;;;;;;;;;31.20;81.50;;;;;;5029289;28;19925;-44
2023/08/21 13:41:54;;;;;;;;;;;31.20;79.20;;;;;;5003979;28;19966;-43
2023/08/21 13:44:20;;;;;;;;;;;31.20;79.40;;;;;;5018023;28;19925;-44
2023/08/21 13:46:47;;;;;;;;;;;31.20;79.60;;;;;;5026263;28;19967;-45
2023/08/21 13:49:14;;;;;;;;;;;31.20;79.80;;;;;;5010452;28;19925;-44
2023/08/21 13:51:40;;;;;;;;;;;31.20;81.10;;;;;;5023361;28;19956;-44
2023/08/21 13:54:08;;;;;;;;;;;31.20;79.80;;;;;;5019924;28;20338;-44
2023/08/21 13:56:34;;;;;;;;;;;31.30;76.40;;;;;;5008590;28;19983;-44
2023/08/21 13:59:03;;;;;;;;;;;31.30;80.80;;;;;;5016302;28;19925;-44
2023/08/21 14:01:29;;;;;;;;;;;31.40;79.90;;;;;;5026369;28;19925;-44
2023/08/21 14:03:56;;;;;;;;;;;31.50;79.30;;;;;;5016580;28;19929;-44
2023/08/21 14:06:23;;;;;;;;;;;31.50;78.10;;;;;;5002701;28;19959;-44
2023/08/21 14:08:53;;;;;;;;;;;31.40;77.90;;;;;;5001464;28;20274;-42
2023/08/21 14:11:19;;;;;;;;;;;31.40;79.60;;;;;;4999082;28;19961;-44
2023/08/21 14:13:46;;;;;;;;;;;31.40;79.50;;;;;;5017821;28;19925;-44
2023/08/21 14:16:14;;;;;;;;;;;31.40;78.50;;;;;;5021569;28;19932;-44